createdAt,value
2018-12-03T00:01:28.651Z,6.90
2018-12-03T00:04:26.426Z,6.80
2018-12-03T00:07:06.965Z,6.80
2018-12-03T00:09:43.554Z,6.80
2018-12-03T00:12:23.415Z,6.80
2018-12-03T00:14:57.915Z,6.80
2018-12-03T00:17:34.867Z,6.80
2018-12-03T00:20:13.937Z,6.80
2018-12-03T00:22:51.713Z,6.80
2018-12-03T00:25:31.002Z,6.80
2018-12-03T00:28:07.063Z,6.80
2018-12-03T00:30:42.606Z,6.70
2018-12-03T00:33:30.076Z,6.70
2018-12-03T00:36:06.549Z,6.70
2018-12-03T00:38:46.865Z,6.70
2018-12-03T00:41:26.662Z,6.70
2018-12-03T00:44:05.761Z,6.60
2018-12-03T00:46:49.155Z,6.60
2018-12-03T00:49:25.653Z,6.50
2018-12-03T00:52:00.588Z,6.60
2018-12-03T00:55:59.763Z,6.50
2018-12-03T00:57:56.237Z,6.50
2018-12-03T01:01:08.984Z,6.50
2018-12-03T01:03:40.426Z,6.50
2018-12-03T01:06:14.993Z,6.40
2018-12-03T01:09:02.286Z,6.40
2018-12-03T01:12:12.221Z,6.40
2018-12-03T01:14:49.886Z,6.40
2018-12-03T01:17:25.602Z,6.40
2018-12-03T01:20:11.169Z,6.30
2018-12-03T01:22:46.090Z,6.30
2018-12-03T01:25:50.308Z,6.30
2018-12-03T01:28:28.119Z,6.30
2018-12-03T01:31:04.561Z,6.30
2018-12-03T01:33:46.165Z,6.40
2018-12-03T01:36:36.782Z,6.30
2018-12-03T01:39:19.440Z,6.30
2018-12-03T01:42:05.773Z,6.30
2018-12-03T01:44:51.764Z,6.30
2018-12-03T01:47:28.117Z,6.30
2018-12-03T01:50:05.486Z,6.40
2018-12-03T01:52:42.507Z,6.40
2018-12-03T01:55:25.781Z,6.40
2018-12-03T01:58:12.819Z,6.40
2018-12-03T02:04:58.318Z,6.30
2018-12-03T02:08:20.790Z,6.30
2018-12-03T02:11:20.534Z,6.30
2018-12-03T02:14:53.092Z,6.20
2018-12-03T02:18:21.357Z,6.10
2018-12-03T02:21:00.671Z,6.10
2018-12-03T02:23:37.158Z,6.10
2018-12-03T02:26:13.539Z,6.00
2018-12-03T02:28:48.550Z,6.00
2018-12-03T02:31:23.133Z,5.90
2018-12-03T02:34:00.520Z,5.90
2018-12-03T02:36:35.053Z,5.80
2018-12-03T02:39:16.174Z,5.80
2018-12-03T02:41:52.179Z,5.80
2018-12-03T02:44:27.763Z,5.70
2018-12-03T02:47:03.557Z,5.70
2018-12-03T02:49:38.308Z,5.70
2018-12-03T02:52:14.776Z,5.70
2018-12-03T02:54:50.134Z,5.70
2018-12-03T02:57:55.745Z,5.70
2018-12-03T03:03:39.024Z,5.70
2018-12-03T03:06:16.097Z,5.70
2018-12-03T03:08:54.379Z,5.70
2018-12-03T03:11:29.782Z,5.80
2018-12-03T03:14:06.398Z,5.80
2018-12-03T03:16:41.055Z,5.70
2018-12-03T03:19:28.007Z,5.70
2018-12-03T03:22:11.397Z,5.70
2018-12-03T03:24:46.849Z,5.60
2018-12-03T03:27:22.135Z,5.60
2018-12-03T03:29:56.862Z,5.60
2018-12-03T03:32:38.602Z,5.60
2018-12-03T03:35:15.551Z,5.50
2018-12-03T03:37:50.228Z,5.50
2018-12-03T03:40:26.067Z,5.40
2018-12-03T03:43:02.959Z,5.30
2018-12-03T03:45:38.882Z,5.20
2018-12-03T03:48:22.302Z,5.20
2018-12-03T03:50:56.895Z,5.10
2018-12-03T03:53:31.482Z,5.10
2018-12-03T03:56:05.921Z,5.10
2018-12-03T03:58:43.415Z,5.00
2018-12-03T04:01:23.620Z,5.00
2018-12-03T04:04:03.751Z,4.90
2018-12-03T04:06:43.217Z,4.90
2018-12-03T04:09:19.700Z,4.80
2018-12-03T04:12:01.355Z,4.70
2018-12-03T04:14:41.310Z,4.60
2018-12-03T04:17:18.075Z,4.60
2018-12-03T04:19:54.071Z,4.60
2018-12-03T04:22:41.954Z,4.60
2018-12-03T04:25:16.559Z,4.60
2018-12-03T04:27:51.900Z,4.50
2018-12-03T04:30:28.909Z,4.50
2018-12-03T04:33:04.373Z,4.50
2018-12-03T04:35:39.879Z,4.50
2018-12-03T04:38:14.851Z,4.40
2018-12-03T04:40:51.499Z,4.40
2018-12-03T04:43:28.553Z,4.30
2018-12-03T04:46:20.902Z,4.30
2018-12-03T04:48:58.189Z,4.30
2018-12-03T04:51:37.492Z,4.20
2018-12-03T04:54:15.762Z,4.20
2018-12-03T04:56:59.935Z,4.20
2018-12-03T04:59:36.130Z,4.20
2018-12-03T05:02:20.358Z,4.10
2018-12-03T05:04:56.158Z,4.10
2018-12-03T05:07:33.814Z,4.10
2018-12-03T05:10:11.436Z,4.20
2018-12-03T05:12:49.218Z,4.20
2018-12-03T05:15:28.555Z,4.30
2018-12-03T05:18:12.825Z,4.30
2018-12-03T05:20:47.466Z,4.30
2018-12-03T05:23:43.928Z,4.30
2018-12-03T05:26:22.193Z,4.30
2018-12-03T05:28:57.407Z,4.30
2018-12-03T05:31:35.689Z,4.30
2018-12-03T05:34:14.956Z,4.20
2018-12-03T05:36:49.469Z,4.10
2018-12-03T05:39:25.305Z,4.10
2018-12-03T05:42:01.164Z,4.00
2018-12-03T05:44:38.481Z,4.00
2018-12-03T05:47:14.554Z,3.90
2018-12-03T05:49:53.787Z,3.80
2018-12-03T05:52:33.250Z,3.70
2018-12-03T05:55:16.176Z,3.60
2018-12-03T05:57:54.087Z,3.60
2018-12-03T06:00:31.543Z,3.50
2018-12-03T06:03:12.246Z,3.50
2018-12-03T06:06:01.895Z,3.50
2018-12-03T06:08:39.511Z,3.50
2018-12-03T06:11:15.145Z,3.50
2018-12-03T06:13:50.337Z,3.60
2018-12-03T06:16:27.459Z,3.60
2018-12-03T06:19:02.102Z,3.70
2018-12-03T06:21:37.198Z,3.70
2018-12-03T06:24:14.637Z,3.70
2018-12-03T06:26:49.786Z,3.80
2018-12-03T06:29:25.180Z,3.80
2018-12-03T06:32:00.160Z,3.90
2018-12-03T06:34:35.651Z,4.00
2018-12-03T06:37:21.393Z,4.00
2018-12-03T06:39:58.967Z,4.00
2018-12-03T06:42:42.030Z,4.00
2018-12-03T06:45:20.952Z,4.10
2018-12-03T06:48:18.488Z,4.10
2018-12-03T06:50:55.218Z,4.10
2018-12-03T06:53:32.006Z,4.10
2018-12-03T06:56:14.203Z,4.20
2018-12-03T06:58:48.705Z,4.20
2018-12-03T07:01:27.130Z,4.20
2018-12-03T07:04:03.238Z,4.20
2018-12-03T07:06:39.166Z,4.10
2018-12-03T07:09:16.716Z,4.00
2018-12-03T07:11:58.496Z,4.00
2018-12-03T07:14:47.294Z,4.10
2018-12-03T07:17:40.308Z,4.10
2018-12-03T07:20:17.904Z,4.10
2018-12-03T07:22:54.179Z,4.10
2018-12-03T07:25:32.654Z,4.10
2018-12-03T07:28:09.197Z,4.10
2018-12-03T07:30:44.431Z,4.00
2018-12-03T07:33:19.562Z,4.10
2018-12-03T07:35:55.038Z,4.10
2018-12-03T07:38:33.601Z,4.10
2018-12-03T07:41:12.772Z,4.10
2018-12-03T07:43:49.251Z,4.00
2018-12-03T07:46:25.757Z,4.10
2018-12-03T07:49:02.075Z,4.10
2018-12-03T07:51:38.544Z,4.10
2018-12-03T07:54:14.038Z,4.10
2018-12-03T07:57:00.501Z,4.00
2018-12-03T07:59:39.211Z,4.00
2018-12-03T08:02:18.156Z,3.90
2018-12-03T08:04:58.519Z,3.80
2018-12-03T08:07:55.333Z,3.80
2018-12-03T08:10:30.977Z,3.80
2018-12-03T08:13:15.133Z,3.80
2018-12-03T08:15:50.391Z,3.80
2018-12-03T08:18:31.280Z,3.80
2018-12-03T08:21:33.157Z,3.90
2018-12-03T08:24:14.262Z,3.80
2018-12-03T08:26:51.823Z,3.80
2018-12-03T08:29:27.618Z,3.80
2018-12-03T08:32:13.975Z,3.80
2018-12-03T08:34:59.282Z,3.80
2018-12-03T08:37:36.879Z,3.80
2018-12-03T08:40:20.184Z,3.80
2018-12-03T08:43:04.655Z,3.70
2018-12-03T08:45:38.988Z,3.60
2018-12-03T08:48:15.402Z,3.60
2018-12-03T08:50:52.303Z,3.60
2018-12-03T08:53:26.524Z,3.60
2018-12-03T08:56:03.101Z,3.60
2018-12-03T08:58:37.253Z,3.60
2018-12-03T09:01:17.469Z,3.60
2018-12-03T09:03:57.835Z,3.60
2018-12-03T09:06:36.306Z,3.60
2018-12-03T09:09:17.669Z,3.50
2018-12-03T09:11:58.108Z,3.40
2018-12-03T09:14:37.489Z,3.40
2018-12-03T09:17:13.801Z,3.50
2018-12-03T09:19:53.114Z,3.40
2018-12-03T09:22:31.512Z,3.40
2018-12-03T09:25:05.891Z,3.40
2018-12-03T09:27:40.265Z,3.40
2018-12-03T09:30:15.539Z,3.40
2018-12-03T09:32:51.282Z,3.30
2018-12-03T09:35:28.928Z,3.30
2018-12-03T09:38:04.039Z,3.40
2018-12-03T09:40:43.880Z,3.40
2018-12-03T09:43:21.112Z,3.40
2018-12-03T09:45:56.058Z,3.20
2018-12-03T09:48:30.567Z,3.00
2018-12-03T09:51:06.606Z,2.90
2018-12-03T09:53:44.145Z,2.90
2018-12-03T09:56:18.469Z,2.90
2018-12-03T09:58:53.677Z,3.00
2018-12-03T10:01:32.405Z,3.10
2018-12-03T10:04:08.481Z,3.20
2018-12-03T10:06:43.482Z,3.30
2018-12-03T10:09:18.457Z,3.30
2018-12-03T10:11:55.954Z,3.30
2018-12-03T10:14:32.162Z,3.40
2018-12-03T10:17:11.363Z,3.30
2018-12-03T10:19:48.731Z,3.30
2018-12-03T10:22:26.544Z,3.30
2018-12-03T10:25:06.867Z,3.30
2018-12-03T10:27:42.748Z,3.30
2018-12-03T10:30:26.390Z,3.30
2018-12-03T10:33:03.039Z,3.30
2018-12-03T10:35:42.002Z,3.30
2018-12-03T10:38:19.430Z,3.20
2018-12-03T10:41:25.899Z,3.20
2018-12-03T10:44:04.824Z,3.10
2018-12-03T10:46:42.989Z,3.10
2018-12-03T10:49:20.240Z,3.20
2018-12-03T10:51:55.270Z,3.20
2018-12-03T10:54:33.712Z,3.10
2018-12-03T10:57:12.494Z,3.20
2018-12-03T10:59:59.149Z,3.20
2018-12-03T11:02:53.183Z,3.30
2018-12-03T11:05:51.728Z,3.20
2018-12-03T11:08:32.500Z,3.20
2018-12-03T11:11:06.721Z,3.20
2018-12-03T11:13:44.278Z,3.20
2018-12-03T11:16:39.818Z,3.10
2018-12-03T11:19:14.405Z,3.10
2018-12-03T11:21:48.692Z,3.10
2018-12-03T11:24:24.957Z,3.00
2018-12-03T11:27:04.139Z,2.90
2018-12-03T11:29:47.194Z,2.90
2018-12-03T11:32:25.853Z,2.80
2018-12-03T11:35:05.870Z,2.80
2018-12-03T11:37:38.022Z,2.70
2018-12-03T11:40:38.960Z,2.70
2018-12-03T11:43:13.640Z,2.80
2018-12-03T11:45:50.382Z,2.80
2018-12-03T11:48:25.497Z,2.70
2018-12-03T11:50:59.851Z,2.80
2018-12-03T11:53:34.708Z,2.70
2018-12-03T11:56:11.159Z,2.80
2018-12-03T11:58:46.243Z,2.70
2018-12-03T12:01:21.584Z,2.70
2018-12-03T12:03:56.024Z,2.70
2018-12-03T12:06:30.759Z,2.60
2018-12-03T12:09:05.290Z,2.50
2018-12-03T12:11:44.604Z,2.40
2018-12-03T12:14:32.854Z,2.40
2018-12-03T12:17:08.930Z,2.40
2018-12-03T12:19:48.783Z,2.40
2018-12-03T12:22:23.001Z,2.30
2018-12-03T12:24:58.355Z,2.30
2018-12-03T12:27:34.263Z,2.30
2018-12-03T12:30:11.813Z,2.30
2018-12-03T12:32:46.634Z,2.40
2018-12-03T12:35:20.905Z,2.40
2018-12-03T12:37:57.429Z,2.30
2018-12-03T12:40:41.092Z,2.30
2018-12-03T12:43:24.479Z,2.30
2018-12-03T12:46:07.955Z,2.30
2018-12-03T12:48:43.340Z,2.30
2018-12-03T12:51:21.743Z,2.30
2018-12-03T12:53:57.231Z,2.40
2018-12-03T12:56:33.319Z,2.40
2018-12-03T12:59:07.758Z,2.40
2018-12-03T13:01:42.899Z,2.30
2018-12-03T13:04:19.265Z,2.30
2018-12-03T13:07:02.717Z,2.30
2018-12-03T13:09:38.313Z,2.30
2018-12-03T13:12:18.281Z,2.40
2018-12-03T13:14:54.045Z,2.40
2018-12-03T13:17:30.740Z,2.50
2018-12-03T13:20:04.881Z,2.40
2018-12-03T13:22:42.269Z,2.40
2018-12-03T13:25:19.058Z,2.40
2018-12-03T13:27:59.710Z,2.40
2018-12-03T13:30:36.239Z,2.40
2018-12-03T13:33:12.093Z,2.30
2018-12-03T13:35:46.510Z,2.30
2018-12-03T13:38:21.113Z,2.30
2018-12-03T13:40:56.335Z,2.30
2018-12-03T13:43:33.359Z,2.20
2018-12-03T13:46:08.716Z,2.10
2018-12-03T13:48:43.274Z,2.20
2018-12-03T13:51:17.496Z,2.10
2018-12-03T13:53:54.490Z,2.10
2018-12-03T13:56:31.691Z,2.00
2018-12-03T13:59:09.144Z,2.00
2018-12-03T14:01:47.975Z,2.10
2018-12-03T14:04:26.297Z,2.00
2018-12-03T14:07:19.229Z,2.00
2018-12-03T14:10:18.055Z,1.90
2018-12-03T14:13:07.146Z,1.90
2018-12-03T14:16:20.560Z,1.90
2018-12-03T14:19:10.746Z,1.80
2018-12-03T14:21:53.971Z,1.70
2018-12-03T14:24:29.630Z,1.60
2018-12-03T14:27:04.873Z,1.60
2018-12-03T14:29:42.671Z,1.70
2018-12-03T14:32:19.483Z,1.70
2018-12-03T14:34:56.879Z,1.70
2018-12-03T14:37:33.940Z,1.70
2018-12-03T14:40:08.895Z,1.70
2018-12-03T14:42:43.284Z,1.80
2018-12-03T14:45:19.436Z,1.70
2018-12-03T14:47:53.518Z,1.70
2018-12-03T14:50:30.113Z,1.70
2018-12-03T14:53:07.782Z,1.60
2018-12-03T14:55:43.411Z,1.70
2018-12-03T14:58:18.878Z,1.70
2018-12-03T15:01:00.813Z,1.70
2018-12-03T15:03:36.562Z,1.70
2018-12-03T15:06:10.761Z,1.70
2018-12-03T15:08:45.067Z,1.60
2018-12-03T15:11:21.112Z,1.70
2018-12-03T15:13:57.717Z,1.60
2018-12-03T15:16:34.955Z,1.60
2018-12-03T15:19:33.746Z,1.60
2018-12-03T15:22:10.686Z,1.60
2018-12-03T15:25:02.461Z,1.60
2018-12-03T15:27:38.355Z,1.50
2018-12-03T15:30:20.285Z,1.60
2018-12-03T15:32:55.324Z,1.50
2018-12-03T15:35:30.650Z,1.40
2018-12-03T15:38:04.911Z,1.30
2018-12-03T15:40:43.557Z,1.40
2018-12-03T15:43:18.453Z,1.40
2018-12-03T15:45:53.923Z,1.40
2018-12-03T15:48:28.336Z,1.40
2018-12-03T15:51:06.025Z,1.40
2018-12-03T15:53:40.255Z,1.40
2018-12-03T15:56:16.914Z,1.40
2018-12-03T15:58:52.838Z,1.40
2018-12-03T16:01:27.382Z,1.40
2018-12-03T16:04:02.030Z,1.30
2018-12-03T16:06:38.900Z,1.40
2018-12-03T16:09:15.859Z,1.40
2018-12-03T16:11:50.505Z,1.40
2018-12-03T16:14:25.784Z,1.50
2018-12-03T16:17:02.594Z,1.50
2018-12-03T16:19:40.173Z,1.50
2018-12-03T16:22:15.040Z,1.50
2018-12-03T16:25:02.168Z,1.40
2018-12-03T16:27:38.322Z,1.50
2018-12-03T16:30:32.409Z,1.40
2018-12-03T16:33:08.666Z,1.40
2018-12-03T16:35:43.720Z,1.50
2018-12-03T16:38:35.971Z,1.50
2018-12-03T16:44:23.238Z,1.40
2018-12-03T16:47:00.775Z,1.40
2018-12-03T16:49:35.902Z,1.40
2018-12-03T16:52:10.491Z,1.40
2018-12-03T16:54:46.150Z,1.40
2018-12-03T16:57:24.415Z,1.40
2018-12-03T17:00:02.801Z,1.40
2018-12-03T17:02:37.103Z,1.40
2018-12-03T17:05:13.349Z,1.40
2018-12-03T17:07:49.384Z,1.40
2018-12-03T17:10:25.092Z,1.30
2018-12-03T17:13:04.480Z,1.40
2018-12-03T17:15:41.298Z,1.40
2018-12-03T17:18:15.893Z,1.50
2018-12-03T17:21:10.057Z,1.60
2018-12-03T17:23:53.376Z,1.60
2018-12-03T17:26:29.624Z,1.60
2018-12-03T17:29:07.071Z,1.70
2018-12-03T17:31:45.327Z,1.70
2018-12-03T17:34:28.477Z,1.80
2018-12-03T17:37:04.358Z,1.80
2018-12-03T17:40:10.574Z,1.90
2018-12-03T17:43:08.102Z,2.00
2018-12-03T17:45:42.600Z,2.10
2018-12-03T17:48:17.946Z,2.10
2018-12-03T17:50:53.515Z,2.30
2018-12-03T17:53:27.682Z,2.40
2018-12-03T17:56:03.179Z,2.40
2018-12-03T17:58:41.125Z,2.50
2018-12-03T18:01:18.947Z,2.70
2018-12-03T18:03:53.109Z,2.70
2018-12-03T18:06:29.023Z,2.80
2018-12-03T18:09:09.382Z,2.80
2018-12-03T18:11:43.865Z,2.90
2018-12-03T18:14:25.879Z,2.90
2018-12-03T18:17:01.989Z,2.90
2018-12-03T18:19:36.715Z,3.00
2018-12-03T18:22:13.315Z,3.00
2018-12-03T18:24:48.496Z,3.10
2018-12-03T18:27:25.060Z,3.10
2018-12-03T18:30:03.641Z,3.20
2018-12-03T18:32:37.839Z,3.20
2018-12-03T18:35:15.872Z,3.30
2018-12-03T18:38:56.399Z,3.30
2018-12-03T18:41:33.461Z,3.40
2018-12-03T18:44:11.978Z,3.50
2018-12-03T18:46:46.113Z,3.60
2018-12-03T18:49:31.517Z,3.70
2018-12-03T18:52:15.787Z,3.80
2018-12-03T18:54:58.824Z,4.00
2018-12-03T18:57:33.209Z,4.00
2018-12-03T19:00:09.295Z,4.10
2018-12-03T19:02:46.820Z,4.20
2018-12-03T19:05:23.617Z,4.30
2018-12-03T19:08:07.525Z,4.40
2018-12-03T19:10:41.754Z,4.50
2018-12-03T19:13:19.636Z,4.50
2018-12-03T19:15:53.770Z,4.60
2018-12-03T19:18:31.485Z,4.70
2018-12-03T19:21:09.381Z,4.80
2018-12-03T19:24:01.608Z,4.80
2018-12-03T19:26:40.215Z,4.80
2018-12-03T19:29:17.091Z,4.80
2018-12-03T19:31:51.552Z,4.80
2018-12-03T19:34:26.195Z,4.80
2018-12-03T19:37:07.237Z,4.80
2018-12-03T19:39:47.184Z,4.90
2018-12-03T19:42:23.908Z,5.00
2018-12-03T19:44:58.214Z,5.00
2018-12-03T19:47:36.253Z,5.10
2018-12-03T19:50:17.379Z,5.10
2018-12-03T19:52:55.590Z,5.20
2018-12-03T19:55:33.262Z,5.20
2018-12-03T19:58:25.526Z,5.30
2018-12-03T20:01:14.511Z,5.40
2018-12-03T20:03:48.709Z,5.30
2018-12-03T20:06:24.118Z,5.40
2018-12-03T20:08:59.994Z,5.40
2018-12-03T20:11:34.930Z,5.50
2018-12-03T20:14:11.982Z,5.50
2018-12-03T20:16:46.119Z,5.60
2018-12-03T20:19:20.433Z,5.60
2018-12-03T20:21:56.977Z,5.60
2018-12-03T20:24:36.257Z,5.60
2018-12-03T20:27:19.089Z,5.50
2018-12-03T20:30:21.811Z,5.60
2018-12-03T20:33:09.166Z,5.60
2018-12-03T20:36:33.105Z,5.80
2018-12-03T20:39:59.649Z,5.90
2018-12-03T20:42:37.903Z,6.00
2018-12-03T20:45:45.504Z,5.90
2018-12-03T20:48:22.991Z,6.00
2018-12-03T20:51:42.587Z,6.10
2018-12-03T20:54:19.265Z,6.20
2018-12-03T20:56:55.742Z,6.10
2018-12-03T20:59:30.358Z,6.10
2018-12-03T21:02:04.970Z,6.10
2018-12-03T21:04:43.379Z,6.20
2018-12-03T21:07:18.230Z,6.20
2018-12-03T21:10:15.715Z,6.20
2018-12-03T21:12:54.355Z,6.10
2018-12-03T21:15:29.395Z,6.20
2018-12-03T21:18:04.257Z,6.20
2018-12-03T21:20:48.398Z,6.20
2018-12-03T21:23:24.894Z,6.40
2018-12-03T21:25:59.709Z,6.50
2018-12-03T21:28:37.970Z,6.50
2018-12-03T21:31:14.010Z,6.60
2018-12-03T21:33:49.106Z,6.60
2018-12-03T21:36:24.122Z,6.70
2018-12-03T21:39:00.647Z,6.80
2018-12-03T21:41:35.649Z,6.80
2018-12-03T21:44:12.315Z,6.70
2018-12-03T21:46:52.654Z,6.70
2018-12-03T21:49:27.675Z,6.70
2018-12-03T21:52:05.648Z,6.80
2018-12-03T21:54:40.670Z,6.80
2018-12-03T21:57:16.290Z,6.70
2018-12-03T21:59:50.780Z,6.80
2018-12-03T22:02:28.060Z,7.00
2018-12-03T22:05:03.002Z,7.20
2018-12-03T22:07:38.377Z,7.40
2018-12-03T22:10:14.845Z,7.50
2018-12-03T22:12:52.197Z,7.50
2018-12-03T22:15:28.250Z,7.70
2018-12-03T22:18:09.402Z,7.70
2018-12-03T22:20:47.901Z,7.50
2018-12-03T22:23:24.252Z,7.70
2018-12-03T22:26:03.009Z,7.90
2018-12-03T22:28:39.130Z,8.00
2018-12-03T22:31:14.693Z,7.90
2018-12-03T22:33:54.736Z,7.90
2018-12-03T22:36:29.110Z,8.00
2018-12-03T22:39:05.288Z,8.10
2018-12-03T22:41:42.219Z,8.00
2018-12-03T22:44:18.594Z,8.00
2018-12-03T22:46:55.453Z,8.10
2018-12-03T22:49:32.342Z,8.20
2018-12-03T22:52:07.984Z,8.30
2018-12-03T22:54:42.860Z,8.20
2018-12-03T22:57:20.823Z,8.30
2018-12-03T22:59:58.038Z,8.20
2018-12-03T23:02:33.880Z,8.20
2018-12-03T23:05:09.634Z,8.10
2018-12-03T23:07:51.771Z,8.10
2018-12-03T23:13:24.039Z,8.10
2018-12-03T23:15:58.556Z,7.90
2018-12-03T23:18:38.624Z,7.70
2018-12-03T23:21:15.566Z,7.50
2018-12-03T23:23:51.647Z,7.40
2018-12-03T23:26:27.347Z,7.20
2018-12-03T23:29:04.430Z,7.00
2018-12-03T23:31:39.157Z,6.70
2018-12-03T23:34:13.629Z,6.60
2018-12-03T23:39:49.085Z,6.40
2018-12-03T23:46:32.301Z,6.20
2018-12-03T23:49:09.119Z,5.90
2018-12-03T23:51:52.078Z,5.80
2018-12-03T23:57:19.357Z,5.60
2018-12-03T23:59:57.944Z,5.50
